sensor_id;sensor_type;location;lat;lon;timestamp;P1;durP1;ratioP1;P2;durP2;ratioP2
43793;SDS011;29414;44.798;20.366;2022-11-12T00:02:54;44.03;;;35.47;;
43793;SDS011;29414;44.798;20.366;2022-11-12T00:06:54;46.83;;;34.43;;
43793;SDS011;29414;44.798;20.366;2022-11-12T00:10:54;48.30;;;34.33;;
43793;SDS011;29414;44.798;20.366;2022-11-12T00:14:54;45.67;;;33.63;;
43793;SDS011;29414;44.798;20.366;2022-11-12T00:18:55;49.60;;;36.00;;
43793;SDS011;29414;44.798;20.366;2022-11-12T00:22:55;49.14;;;37.76;;
43793;SDS011;29414;44.798;20.366;2022-11-12T00:26:55;52.60;;;37.80;;
43793;SDS011;29414;44.798;20.366;2022-11-12T00:30:55;45.46;;;34.46;;
43793;SDS011;29414;44.798;20.366;2022-11-12T00:34:56;46.67;;;36.43;;
43793;SDS011;29414;44.798;20.366;2022-11-12T00:38:56;52.20;;;39.53;;
43793;SDS011;29414;44.798;20.366;2022-11-12T00:42:56;58.37;;;42.17;;
43793;SDS011;29414;44.798;20.366;2022-11-12T00:46:57;55.10;;;42.20;;
43793;SDS011;29414;44.798;20.366;2022-11-12T00:51:01;56.70;;;40.80;;
43793;SDS011;29414;44.798;20.366;2022-11-12T00:55:01;56.57;;;41.50;;
43793;SDS011;29414;44.798;20.366;2022-11-12T00:59:02;51.97;;;37.77;;
43793;SDS011;29414;44.798;20.366;2022-11-12T01:03:02;58.40;;;44.20;;
43793;SDS011;29414;44.798;20.366;2022-11-12T01:07:03;54.80;;;43.60;;
43793;SDS011;29414;44.798;20.366;2022-11-12T01:11:13;52.93;;;39.30;;
43793;SDS011;29414;44.798;20.366;2022-11-12T01:15:14;48.87;;;38.77;;
43793;SDS011;29414;44.798;20.366;2022-11-12T01:19:14;51.77;;;39.17;;
43793;SDS011;29414;44.798;20.366;2022-11-12T01:23:15;51.37;;;39.80;;
43793;SDS011;29414;44.798;20.366;2022-11-12T01:27:15;56.67;;;40.07;;
43793;SDS011;29414;44.798;20.366;2022-11-12T01:31:16;62.13;;;44.43;;
43793;SDS011;29414;44.798;20.366;2022-11-12T01:35:17;57.30;;;45.57;;
43793;SDS011;29414;44.798;20.366;2022-11-12T01:39:17;59.00;;;45.90;;
43793;SDS011;29414;44.798;20.366;2022-11-12T01:43:17;50.07;;;39.07;;
43793;SDS011;29414;44.798;20.366;2022-11-12T01:47:22;54.70;;;41.40;;
43793;SDS011;29414;44.798;20.366;2022-11-12T01:51:25;51.03;;;38.23;;
43793;SDS011;29414;44.798;20.366;2022-11-12T01:55:28;50.13;;;38.23;;
43793;SDS011;29414;44.798;20.366;2022-11-12T01:59:32;48.97;;;38.63;;
43793;SDS011;29414;44.798;20.366;2022-11-12T02:03:36;45.73;;;36.23;;
43793;SDS011;29414;44.798;20.366;2022-11-12T02:07:37;47.13;;;36.63;;
43793;SDS011;29414;44.798;20.366;2022-11-12T02:11:38;44.80;;;36.90;;
43793;SDS011;29414;44.798;20.366;2022-11-12T02:15:39;47.97;;;36.73;;
43793;SDS011;29414;44.798;20.366;2022-11-12T02:19:40;54.27;;;39.03;;
43793;SDS011;29414;44.798;20.366;2022-11-12T02:23:40;46.50;;;37.37;;
43793;SDS011;29414;44.798;20.366;2022-11-12T02:27:40;49.70;;;36.60;;
43793;SDS011;29414;44.798;20.366;2022-11-12T02:31:41;48.83;;;35.93;;
43793;SDS011;29414;44.798;20.366;2022-11-12T02:35:44;47.23;;;36.90;;
43793;SDS011;29414;44.798;20.366;2022-11-12T02:39:44;53.63;;;38.00;;
43793;SDS011;29414;44.798;20.366;2022-11-12T02:43:44;50.73;;;39.53;;
43793;SDS011;29414;44.798;20.366;2022-11-12T02:47:45;52.70;;;39.47;;
43793;SDS011;29414;44.798;20.366;2022-11-12T02:51:45;49.27;;;37.13;;
43793;SDS011;29414;44.798;20.366;2022-11-12T02:55:45;49.13;;;36.73;;
43793;SDS011;29414;44.798;20.366;2022-11-12T02:59:45;40.73;;;36.27;;
43793;SDS011;29414;44.798;20.366;2022-11-12T03:03:46;49.27;;;36.83;;
43793;SDS011;29414;44.798;20.366;2022-11-12T03:07:46;51.90;;;39.53;;
43793;SDS011;29414;44.798;20.366;2022-11-12T03:11:46;46.97;;;35.55;;
43793;SDS011;29414;44.798;20.366;2022-11-12T03:15:46;43.13;;;34.00;;
43793;SDS011;29414;44.798;20.366;2022-11-12T03:19:47;38.57;;;32.57;;
43793;SDS011;29414;44.798;20.366;2022-11-12T03:23:47;40.50;;;34.43;;
43793;SDS011;29414;44.798;20.366;2022-11-12T03:27:47;42.33;;;34.70;;
43793;SDS011;29414;44.798;20.366;2022-11-12T03:31:48;42.60;;;34.13;;
43793;SDS011;29414;44.798;20.366;2022-11-12T03:35:48;48.63;;;35.37;;
43793;SDS011;29414;44.798;20.366;2022-11-12T03:39:48;40.43;;;34.00;;
43793;SDS011;29414;44.798;20.366;2022-11-12T03:43:48;41.23;;;34.47;;
43793;SDS011;29414;44.798;20.366;2022-11-12T03:47:50;40.47;;;33.17;;
43793;SDS011;29414;44.798;20.366;2022-11-12T03:51:50;42.30;;;33.77;;
43793;SDS011;29414;44.798;20.366;2022-11-12T03:55:51;42.43;;;32.40;;
43793;SDS011;29414;44.798;20.366;2022-11-12T03:59:51;48.67;;;32.43;;
43793;SDS011;29414;44.798;20.366;2022-11-12T04:03:51;45.33;;;33.97;;
43793;SDS011;29414;44.798;20.366;2022-11-12T04:07:58;42.47;;;30.97;;
43793;SDS011;29414;44.798;20.366;2022-11-12T04:12:37;41.70;;;33.83;;
43793;SDS011;29414;44.798;20.366;2022-11-12T04:16:55;43.07;;;32.27;;
43793;SDS011;29414;44.798;20.366;2022-11-12T04:21:14;42.37;;;35.30;;
43793;SDS011;29414;44.798;20.366;2022-11-12T04:25:33;45.23;;;32.77;;
43793;SDS011;29414;44.798;20.366;2022-11-12T04:29:52;54.97;;;33.50;;
43793;SDS011;29414;44.798;20.366;2022-11-12T04:34:12;45.70;;;33.83;;
43793;SDS011;29414;44.798;20.366;2022-11-12T04:38:27;41.37;;;33.43;;
43793;SDS011;29414;44.798;20.366;2022-11-12T04:42:27;43.20;;;32.20;;
43793;SDS011;29414;44.798;20.366;2022-11-12T04:47:03;40.80;;;33.40;;
43793;SDS011;29414;44.798;20.366;2022-11-12T04:51:04;46.70;;;32.57;;
43793;SDS011;29414;44.798;20.366;2022-11-12T04:55:27;41.37;;;34.30;;
43793;SDS011;29414;44.798;20.366;2022-11-12T04:59:27;40.97;;;32.97;;
43793;SDS011;29414;44.798;20.366;2022-11-12T05:03:28;38.83;;;31.07;;
43793;SDS011;29414;44.798;20.366;2022-11-12T05:07:28;37.80;;;30.20;;
43793;SDS011;29414;44.798;20.366;2022-11-12T05:11:30;39.60;;;32.17;;
43793;SDS011;29414;44.798;20.366;2022-11-12T05:15:31;41.40;;;32.10;;
43793;SDS011;29414;44.798;20.366;2022-11-12T05:19:31;47.00;;;32.83;;
43793;SDS011;29414;44.798;20.366;2022-11-12T05:23:33;43.80;;;34.67;;
43793;SDS011;29414;44.798;20.366;2022-11-12T05:27:33;41.90;;;35.10;;
43793;SDS011;29414;44.798;20.366;2022-11-12T05:31:34;40.93;;;33.67;;
43793;SDS011;29414;44.798;20.366;2022-11-12T05:35:34;42.33;;;33.00;;
43793;SDS011;29414;44.798;20.366;2022-11-12T05:39:34;43.63;;;34.20;;
43793;SDS011;29414;44.798;20.366;2022-11-12T05:43:35;37.17;;;30.77;;
43793;SDS011;29414;44.798;20.366;2022-11-12T05:47:35;42.27;;;32.87;;
43793;SDS011;29414;44.798;20.366;2022-11-12T05:51:35;43.87;;;33.67;;
43793;SDS011;29414;44.798;20.366;2022-11-12T05:55:36;43.10;;;32.07;;
43793;SDS011;29414;44.798;20.366;2022-11-12T05:59:36;44.37;;;34.83;;
43793;SDS011;29414;44.798;20.366;2022-11-12T06:03:36;76.28;;;57.92;;
43793;SDS011;29414;44.798;20.366;2022-11-12T06:07:36;38.47;;;31.13;;
43793;SDS011;29414;44.798;20.366;2022-11-12T06:11:37;46.70;;;33.57;;
43793;SDS011;29414;44.798;20.366;2022-11-12T06:15:37;55.00;;;37.67;;
43793;SDS011;29414;44.798;20.366;2022-11-12T06:19:37;51.20;;;36.00;;
43793;SDS011;29414;44.798;20.366;2022-11-12T06:23:38;37.50;;;29.63;;
43793;SDS011;29414;44.798;20.366;2022-11-12T06:27:38;42.43;;;33.13;;
43793;SDS011;29414;44.798;20.366;2022-11-12T06:31:38;36.80;;;30.43;;
43793;SDS011;29414;44.798;20.366;2022-11-12T06:35:38;44.63;;;33.15;;
43793;SDS011;29414;44.798;20.366;2022-11-12T06:39:39;42.03;;;32.23;;
43793;SDS011;29414;44.798;20.366;2022-11-12T06:43:39;38.40;;;31.73;;
43793;SDS011;29414;44.798;20.366;2022-11-12T06:47:40;40.83;;;32.90;;
43793;SDS011;29414;44.798;20.366;2022-11-12T06:51:40;43.87;;;34.37;;
43793;SDS011;29414;44.798;20.366;2022-11-12T06:55:40;44.10;;;33.47;;
43793;SDS011;29414;44.798;20.366;2022-11-12T06:59:41;40.30;;;31.93;;
43793;SDS011;29414;44.798;20.366;2022-11-12T07:03:41;35.17;;;28.43;;
43793;SDS011;29414;44.798;20.366;2022-11-12T07:07:43;42.40;;;31.97;;
43793;SDS011;29414;44.798;20.366;2022-11-12T07:11:43;36.37;;;28.97;;
43793;SDS011;29414;44.798;20.366;2022-11-12T07:15:43;36.83;;;28.90;;
43793;SDS011;29414;44.798;20.366;2022-11-12T07:19:43;38.23;;;28.20;;
43793;SDS011;29414;44.798;20.366;2022-11-12T07:23:44;36.20;;;28.87;;
43793;SDS011;29414;44.798;20.366;2022-11-12T07:27:44;43.50;;;36.47;;
43793;SDS011;29414;44.798;20.366;2022-11-12T07:31:44;50.70;;;44.03;;
43793;SDS011;29414;44.798;20.366;2022-11-12T07:35:45;51.17;;;43.03;;
43793;SDS011;29414;44.798;20.366;2022-11-12T07:39:45;44.33;;;33.23;;
43793;SDS011;29414;44.798;20.366;2022-11-12T07:43:46;36.00;;;28.73;;
43793;SDS011;29414;44.798;20.366;2022-11-12T07:47:46;34.90;;;26.57;;
43793;SDS011;29414;44.798;20.366;2022-11-12T07:51:47;29.83;;;23.33;;
43793;SDS011;29414;44.798;20.366;2022-11-12T07:55:54;30.57;;;24.23;;
43793;SDS011;29414;44.798;20.366;2022-11-12T07:59:54;30.80;;;24.10;;
43793;SDS011;29414;44.798;20.366;2022-11-12T08:03:55;26.60;;;20.70;;
43793;SDS011;29414;44.798;20.366;2022-11-12T08:07:56;25.40;;;21.70;;
43793;SDS011;29414;44.798;20.366;2022-11-12T08:11:56;24.03;;;20.13;;
43793;SDS011;29414;44.798;20.366;2022-11-12T08:15:57;30.17;;;23.17;;
43793;SDS011;29414;44.798;20.366;2022-11-12T08:19:57;29.77;;;21.73;;
43793;SDS011;29414;44.798;20.366;2022-11-12T08:23:57;26.03;;;22.57;;
43793;SDS011;29414;44.798;20.366;2022-11-12T08:27:58;29.50;;;18.50;;
43793;SDS011;29414;44.798;20.366;2022-11-12T08:31:58;24.93;;;19.07;;
43793;SDS011;29414;44.798;20.366;2022-11-12T08:36:05;20.90;;;16.90;;
43793;SDS011;29414;44.798;20.366;2022-11-12T08:40:06;21.70;;;18.47;;
43793;SDS011;29414;44.798;20.366;2022-11-12T08:44:06;23.75;;;18.65;;
43793;SDS011;29414;44.798;20.366;2022-11-12T08:48:08;23.17;;;18.77;;
43793;SDS011;29414;44.798;20.366;2022-11-12T08:52:08;25.63;;;20.90;;
43793;SDS011;29414;44.798;20.366;2022-11-12T08:56:08;23.93;;;18.70;;
43793;SDS011;29414;44.798;20.366;2022-11-12T09:00:12;23.73;;;19.27;;
43793;SDS011;29414;44.798;20.366;2022-11-12T09:04:12;22.10;;;18.85;;
43793;SDS011;29414;44.798;20.366;2022-11-12T09:08:14;23.70;;;19.42;;
43793;SDS011;29414;44.798;20.366;2022-11-12T09:12:15;25.17;;;20.75;;
43793;SDS011;29414;44.798;20.366;2022-11-12T09:16:19;26.67;;;21.65;;
43793;SDS011;29414;44.798;20.366;2022-11-12T09:20:23;25.33;;;19.85;;
43793;SDS011;29414;44.798;20.366;2022-11-12T09:24:24;24.30;;;19.20;;
43793;SDS011;29414;44.798;20.366;2022-11-12T09:28:24;19.67;;;17.45;;
43793;SDS011;29414;44.798;20.366;2022-11-12T09:32:24;23.75;;;17.42;;
43793;SDS011;29414;44.798;20.366;2022-11-12T09:36:24;22.08;;;18.75;;
43793;SDS011;29414;44.798;20.366;2022-11-12T09:40:36;21.75;;;17.83;;
43793;SDS011;29414;44.798;20.366;2022-11-12T09:44:39;23.17;;;17.48;;
43793;SDS011;29414;44.798;20.366;2022-11-12T09:48:42;21.38;;;18.23;;
43793;SDS011;29414;44.798;20.366;2022-11-12T09:52:43;24.40;;;21.15;;
43793;SDS011;29414;44.798;20.366;2022-11-12T09:56:46;23.42;;;18.45;;
43793;SDS011;29414;44.798;20.366;2022-11-12T10:00:51;20.85;;;18.17;;
43793;SDS011;29414;44.798;20.366;2022-11-12T10:13:08;22.33;;;17.98;;
43793;SDS011;29414;44.798;20.366;2022-11-12T10:17:18;21.15;;;19.13;;
43793;SDS011;29414;44.798;20.366;2022-11-12T10:25:23;20.02;;;18.00;;
43793;SDS011;29414;44.798;20.366;2022-11-12T10:33:28;21.82;;;19.46;;
43793;SDS011;29414;44.798;20.366;2022-11-12T10:37:40;18.73;;;16.73;;
43793;SDS011;29414;44.798;20.366;2022-11-12T10:41:41;22.95;;;19.30;;
43793;SDS011;29414;44.798;20.366;2022-11-12T10:45:42;22.20;;;18.77;;
43793;SDS011;29414;44.798;20.366;2022-11-12T10:49:42;23.38;;;18.88;;
43793;SDS011;29414;44.798;20.366;2022-11-12T10:53:43;20.23;;;17.67;;
43793;SDS011;29414;44.798;20.366;2022-11-12T10:57:43;25.98;;;19.35;;
43793;SDS011;29414;44.798;20.366;2022-11-12T11:01:44;22.23;;;17.20;;
43793;SDS011;29414;44.798;20.366;2022-11-12T11:05:47;20.80;;;17.83;;
43793;SDS011;29414;44.798;20.366;2022-11-12T11:09:53;30.38;;;18.38;;
43793;SDS011;29414;44.798;20.366;2022-11-12T11:13:54;20.00;;;17.45;;
43793;SDS011;29414;44.798;20.366;2022-11-12T11:17:55;19.70;;;15.82;;
43793;SDS011;29414;44.798;20.366;2022-11-12T11:21:56;18.62;;;14.60;;
43793;SDS011;29414;44.798;20.366;2022-11-12T11:25:58;24.35;;;15.73;;
43793;SDS011;29414;44.798;20.366;2022-11-12T11:30:12;18.67;;;14.25;;
43793;SDS011;29414;44.798;20.366;2022-11-12T11:34:21;20.42;;;16.27;;
43793;SDS011;29414;44.798;20.366;2022-11-12T11:50:51;20.25;;;14.85;;
43793;SDS011;29414;44.798;20.366;2022-11-12T12:11:48;9.45;;;8.38;;
43793;SDS011;29414;44.798;20.366;2022-11-12T12:24:15;16.90;;;8.90;;
43793;SDS011;29414;44.798;20.366;2022-11-12T12:28:25;13.68;;;10.02;;
43793;SDS011;29414;44.798;20.366;2022-11-12T12:32:36;14.82;;;10.68;;
43793;SDS011;29414;44.798;20.366;2022-11-12T12:36:38;13.90;;;11.27;;
43793;SDS011;29414;44.798;20.366;2022-11-12T12:40:50;12.50;;;11.15;;
43793;SDS011;29414;44.798;20.366;2022-11-12T12:45:00;13.82;;;12.13;;
43793;SDS011;29414;44.798;20.366;2022-11-12T12:49:07;13.80;;;10.57;;
43793;SDS011;29414;44.798;20.366;2022-11-12T12:57:26;13.55;;;10.07;;
43793;SDS011;29414;44.798;20.366;2022-11-12T13:01:28;14.15;;;11.32;;
43793;SDS011;29414;44.798;20.366;2022-11-12T13:05:34;13.20;;;11.77;;
43793;SDS011;29414;44.798;20.366;2022-11-12T13:09:34;12.23;;;10.13;;
43793;SDS011;29414;44.798;20.366;2022-11-12T13:13:35;13.07;;;9.95;;
43793;SDS011;29414;44.798;20.366;2022-11-12T13:17:43;15.25;;;9.93;;
43793;SDS011;29414;44.798;20.366;2022-11-12T13:21:44;10.68;;;9.57;;
43793;SDS011;29414;44.798;20.366;2022-11-12T13:25:44;10.40;;;9.32;;
43793;SDS011;29414;44.798;20.366;2022-11-12T13:29:45;10.50;;;8.50;;
43793;SDS011;29414;44.798;20.366;2022-11-12T13:33:46;10.70;;;9.40;;
43793;SDS011;29414;44.798;20.366;2022-11-12T13:41:54;8.77;;;7.95;;
43793;SDS011;29414;44.798;20.366;2022-11-12T13:50:23;11.75;;;9.23;;
43793;SDS011;29414;44.798;20.366;2022-11-12T13:54:28;11.70;;;9.23;;
43793;SDS011;29414;44.798;20.366;2022-11-12T13:58:33;16.55;;;13.07;;
43793;SDS011;29414;44.798;20.366;2022-11-12T14:02:33;19.42;;;13.25;;
43793;SDS011;29414;44.798;20.366;2022-11-12T14:06:52;15.23;;;12.85;;
43793;SDS011;29414;44.798;20.366;2022-11-12T14:23:13;14.23;;;10.38;;
43793;SDS011;29414;44.798;20.366;2022-11-12T14:27:47;12.88;;;11.48;;
43793;SDS011;29414;44.798;20.366;2022-11-12T14:31:40;17.00;;;12.73;;
43793;SDS011;29414;44.798;20.366;2022-11-12T14:35:40;15.90;;;12.20;;
43793;SDS011;29414;44.798;20.366;2022-11-12T14:39:40;13.80;;;11.78;;
43793;SDS011;29414;44.798;20.366;2022-11-12T14:43:43;11.63;;;10.23;;
43793;SDS011;29414;44.798;20.366;2022-11-12T14:47:44;15.88;;;10.10;;
43793;SDS011;29414;44.798;20.366;2022-11-12T14:51:48;12.93;;;11.15;;
43793;SDS011;29414;44.798;20.366;2022-11-12T14:55:50;14.48;;;11.82;;
43793;SDS011;29414;44.798;20.366;2022-11-12T14:59:52;14.20;;;11.85;;
43793;SDS011;29414;44.798;20.366;2022-11-12T15:04:02;13.77;;;11.25;;
43793;SDS011;29414;44.798;20.366;2022-11-12T15:08:03;14.60;;;11.35;;
43793;SDS011;29414;44.798;20.366;2022-11-12T15:12:08;15.65;;;11.15;;
43793;SDS011;29414;44.798;20.366;2022-11-12T15:16:11;11.45;;;9.40;;
43793;SDS011;29414;44.798;20.366;2022-11-12T15:20:15;11.10;;;8.27;;
43793;SDS011;29414;44.798;20.366;2022-11-12T15:24:17;9.73;;;7.65;;
43793;SDS011;29414;44.798;20.366;2022-11-12T15:28:20;11.48;;;8.13;;
43793;SDS011;29414;44.798;20.366;2022-11-12T15:36:20;12.74;;;6.46;;
43793;SDS011;29414;44.798;20.366;2022-11-12T15:40:22;7.50;;;6.78;;
43793;SDS011;29414;44.798;20.366;2022-11-12T15:44:22;9.20;;;7.40;;
43793;SDS011;29414;44.798;20.366;2022-11-12T15:48:22;13.95;;;8.65;;
43793;SDS011;29414;44.798;20.366;2022-11-12T15:52:23;11.63;;;8.60;;
43793;SDS011;29414;44.798;20.366;2022-11-12T15:56:23;18.40;;;8.52;;
43793;SDS011;29414;44.798;20.366;2022-11-12T16:00:24;10.07;;;8.18;;
43793;SDS011;29414;44.798;20.366;2022-11-12T16:04:25;13.38;;;8.95;;
43793;SDS011;29414;44.798;20.366;2022-11-12T16:08:25;13.90;;;9.85;;
43793;SDS011;29414;44.798;20.366;2022-11-12T16:12:25;15.32;;;9.88;;
43793;SDS011;29414;44.798;20.366;2022-11-12T16:16:26;12.40;;;10.25;;
43793;SDS011;29414;44.798;20.366;2022-11-12T16:20:28;11.48;;;9.38;;
43793;SDS011;29414;44.798;20.366;2022-11-12T16:24:29;11.85;;;10.63;;
43793;SDS011;29414;44.798;20.366;2022-11-12T16:28:30;13.63;;;10.30;;
43793;SDS011;29414;44.798;20.366;2022-11-12T16:32:30;12.30;;;10.50;;
43793;SDS011;29414;44.798;20.366;2022-11-12T16:36:30;15.44;;;10.12;;
43793;SDS011;29414;44.798;20.366;2022-11-12T16:40:30;16.88;;;11.98;;
43793;SDS011;29414;44.798;20.366;2022-11-12T16:44:31;17.74;;;10.82;;
43793;SDS011;29414;44.798;20.366;2022-11-12T16:48:31;16.35;;;11.27;;
43793;SDS011;29414;44.798;20.366;2022-11-12T16:52:31;21.73;;;13.30;;
43793;SDS011;29414;44.798;20.366;2022-11-12T16:56:31;19.36;;;12.84;;
43793;SDS011;29414;44.798;20.366;2022-11-12T17:00:32;20.48;;;15.10;;
43793;SDS011;29414;44.798;20.366;2022-11-12T17:04:32;22.00;;;16.67;;
43793;SDS011;29414;44.798;20.366;2022-11-12T17:08:32;20.15;;;16.70;;
43793;SDS011;29414;44.798;20.366;2022-11-12T17:12:33;20.45;;;16.58;;
43793;SDS011;29414;44.798;20.366;2022-11-12T17:16:33;23.23;;;16.75;;
43793;SDS011;29414;44.798;20.366;2022-11-12T17:20:33;26.67;;;18.00;;
43793;SDS011;29414;44.798;20.366;2022-11-12T17:24:34;23.75;;;17.60;;
43793;SDS011;29414;44.798;20.366;2022-11-12T17:28:34;23.52;;;18.23;;
43793;SDS011;29414;44.798;20.366;2022-11-12T17:32:34;26.25;;;19.05;;
43793;SDS011;29414;44.798;20.366;2022-11-12T17:36:34;26.67;;;16.17;;
43793;SDS011;29414;44.798;20.366;2022-11-12T17:40:35;27.08;;;16.52;;
43793;SDS011;29414;44.798;20.366;2022-11-12T17:44:35;19.92;;;14.77;;
43793;SDS011;29414;44.798;20.366;2022-11-12T17:48:36;24.65;;;15.57;;
43793;SDS011;29414;44.798;20.366;2022-11-12T17:52:36;19.38;;;14.80;;
43793;SDS011;29414;44.798;20.366;2022-11-12T17:56:36;21.77;;;16.38;;
43793;SDS011;29414;44.798;20.366;2022-11-12T18:00:37;19.00;;;15.80;;
43793;SDS011;29414;44.798;20.366;2022-11-12T18:04:37;18.95;;;15.25;;
43793;SDS011;29414;44.798;20.366;2022-11-12T18:08:38;18.52;;;14.30;;
43793;SDS011;29414;44.798;20.366;2022-11-12T18:12:38;18.25;;;13.95;;
43793;SDS011;29414;44.798;20.366;2022-11-12T18:16:38;21.63;;;14.77;;
43793;SDS011;29414;44.798;20.366;2022-11-12T18:20:39;20.70;;;14.50;;
43793;SDS011;29414;44.798;20.366;2022-11-12T18:24:41;19.77;;;15.10;;
43793;SDS011;29414;44.798;20.366;2022-11-12T18:28:41;22.88;;;16.25;;
43793;SDS011;29414;44.798;20.366;2022-11-12T18:32:41;20.20;;;15.43;;
43793;SDS011;29414;44.798;20.366;2022-11-12T18:36:42;20.17;;;16.07;;
43793;SDS011;29414;44.798;20.366;2022-11-12T18:40:42;26.00;;;17.80;;
43793;SDS011;29414;44.798;20.366;2022-11-12T18:44:43;23.73;;;16.90;;
43793;SDS011;29414;44.798;20.366;2022-11-12T18:48:43;18.20;;;13.87;;
43793;SDS011;29414;44.798;20.366;2022-11-12T18:52:43;24.93;;;15.53;;
43793;SDS011;29414;44.798;20.366;2022-11-12T18:56:43;22.23;;;16.00;;
43793;SDS011;29414;44.798;20.366;2022-11-12T19:00:44;22.47;;;16.20;;
43793;SDS011;29414;44.798;20.366;2022-11-12T19:04:44;22.58;;;17.15;;
43793;SDS011;29414;44.798;20.366;2022-11-12T19:08:44;21.87;;;13.90;;
43793;SDS011;29414;44.798;20.366;2022-11-12T19:12:44;14.33;;;11.33;;
43793;SDS011;29414;44.798;20.366;2022-11-12T19:16:45;19.27;;;12.33;;
43793;SDS011;29414;44.798;20.366;2022-11-12T19:20:45;16.63;;;12.37;;
43793;SDS011;29414;44.798;20.366;2022-11-12T19:24:46;16.37;;;11.77;;
43793;SDS011;29414;44.798;20.366;2022-11-12T19:28:46;14.65;;;11.80;;
43793;SDS011;29414;44.798;20.366;2022-11-12T19:32:46;16.17;;;11.98;;
43793;SDS011;29414;44.798;20.366;2022-11-12T19:36:47;13.17;;;11.63;;
43793;SDS011;29414;44.798;20.366;2022-11-12T19:40:47;14.56;;;10.98;;
43793;SDS011;29414;44.798;20.366;2022-11-12T19:44:47;15.15;;;12.07;;
43793;SDS011;29414;44.798;20.366;2022-11-12T19:48:48;15.20;;;11.30;;
43793;SDS011;29414;44.798;20.366;2022-11-12T19:52:48;14.27;;;11.27;;
43793;SDS011;29414;44.798;20.366;2022-11-12T19:56:51;14.90;;;11.97;;
43793;SDS011;29414;44.798;20.366;2022-11-12T20:00:51;15.17;;;11.40;;
43793;SDS011;29414;44.798;20.366;2022-11-12T20:04:51;11.70;;;10.10;;
43793;SDS011;29414;44.798;20.366;2022-11-12T20:08:51;15.50;;;11.67;;
43793;SDS011;29414;44.798;20.366;2022-11-12T20:12:52;15.00;;;11.20;;
43793;SDS011;29414;44.798;20.366;2022-11-12T20:16:53;15.57;;;12.37;;
43793;SDS011;29414;44.798;20.366;2022-11-12T20:20:54;15.63;;;12.87;;
43793;SDS011;29414;44.798;20.366;2022-11-12T20:24:55;19.43;;;13.50;;
43793;SDS011;29414;44.798;20.366;2022-11-12T20:28:55;16.10;;;12.43;;
43793;SDS011;29414;44.798;20.366;2022-11-12T20:32:55;18.58;;;12.10;;
43793;SDS011;29414;44.798;20.366;2022-11-12T20:36:55;15.52;;;12.20;;
43793;SDS011;29414;44.798;20.366;2022-11-12T20:40:56;13.33;;;11.80;;
43793;SDS011;29414;44.798;20.366;2022-11-12T20:44:57;13.73;;;10.47;;
43793;SDS011;29414;44.798;20.366;2022-11-12T20:48:57;12.50;;;10.70;;
43793;SDS011;29414;44.798;20.366;2022-11-12T20:52:58;15.07;;;11.33;;
43793;SDS011;29414;44.798;20.366;2022-11-12T20:56:59;12.67;;;10.93;;
43793;SDS011;29414;44.798;20.366;2022-11-12T21:01:02;13.77;;;10.97;;
43793;SDS011;29414;44.798;20.366;2022-11-12T21:05:02;12.80;;;10.50;;
43793;SDS011;29414;44.798;20.366;2022-11-12T21:09:03;12.53;;;9.33;;
43793;SDS011;29414;44.798;20.366;2022-11-12T21:13:03;14.77;;;10.05;;
43793;SDS011;29414;44.798;20.366;2022-11-12T21:17:03;13.97;;;10.63;;
43793;SDS011;29414;44.798;20.366;2022-11-12T21:21:07;12.70;;;10.23;;
43793;SDS011;29414;44.798;20.366;2022-11-12T21:25:08;10.70;;;9.60;;
43793;SDS011;29414;44.798;20.366;2022-11-12T21:29:08;12.35;;;9.57;;
43793;SDS011;29414;44.798;20.366;2022-11-12T21:33:08;13.60;;;9.97;;
43793;SDS011;29414;44.798;20.366;2022-11-12T21:37:08;14.30;;;12.02;;
43793;SDS011;29414;44.798;20.366;2022-11-12T21:41:16;12.82;;;10.20;;
43793;SDS011;29414;44.798;20.366;2022-11-12T21:45:16;15.20;;;10.97;;
43793;SDS011;29414;44.798;20.366;2022-11-12T21:49:16;11.40;;;9.65;;
43793;SDS011;29414;44.798;20.366;2022-11-12T21:53:16;13.68;;;9.56;;
43793;SDS011;29414;44.798;20.366;2022-11-12T21:57:17;14.52;;;9.70;;
43793;SDS011;29414;44.798;20.366;2022-11-12T22:01:18;9.30;;;8.30;;
43793;SDS011;29414;44.798;20.366;2022-11-12T22:05:19;11.90;;;9.77;;
43793;SDS011;29414;44.798;20.366;2022-11-12T22:09:19;10.98;;;9.75;;
43793;SDS011;29414;44.798;20.366;2022-11-12T22:13:19;17.53;;;11.23;;
43793;SDS011;29414;44.798;20.366;2022-11-12T22:17:19;15.50;;;10.48;;
43793;SDS011;29414;44.798;20.366;2022-11-12T22:21:24;12.27;;;10.45;;
43793;SDS011;29414;44.798;20.366;2022-11-12T22:25:25;11.17;;;9.60;;
43793;SDS011;29414;44.798;20.366;2022-11-12T22:29:25;14.10;;;10.77;;
43793;SDS011;29414;44.798;20.366;2022-11-12T22:33:25;14.60;;;10.50;;
43793;SDS011;29414;44.798;20.366;2022-11-12T22:37:26;14.33;;;11.27;;
43793;SDS011;29414;44.798;20.366;2022-11-12T22:41:29;14.23;;;11.03;;
43793;SDS011;29414;44.798;20.366;2022-11-12T22:45:30;14.83;;;10.83;;
43793;SDS011;29414;44.798;20.366;2022-11-12T22:49:30;13.67;;;11.57;;
43793;SDS011;29414;44.798;20.366;2022-11-12T22:53:30;13.43;;;10.73;;
43793;SDS011;29414;44.798;20.366;2022-11-12T22:57:34;13.63;;;10.87;;
43793;SDS011;29414;44.798;20.366;2022-11-12T23:01:34;12.30;;;10.10;;
43793;SDS011;29414;44.798;20.366;2022-11-12T23:05:35;11.80;;;10.57;;
43793;SDS011;29414;44.798;20.366;2022-11-12T23:09:36;12.03;;;9.97;;
43793;SDS011;29414;44.798;20.366;2022-11-12T23:13:36;13.80;;;11.07;;
43793;SDS011;29414;44.798;20.366;2022-11-12T23:17:37;11.20;;;8.97;;
43793;SDS011;29414;44.798;20.366;2022-11-12T23:21:37;11.47;;;10.10;;
43793;SDS011;29414;44.798;20.366;2022-11-12T23:25:37;13.33;;;10.27;;
43793;SDS011;29414;44.798;20.366;2022-11-12T23:29:37;12.63;;;9.70;;
43793;SDS011;29414;44.798;20.366;2022-11-12T23:33:38;12.30;;;9.53;;
43793;SDS011;29414;44.798;20.366;2022-11-12T23:37:38;10.33;;;8.80;;
43793;SDS011;29414;44.798;20.366;2022-11-12T23:41:38;12.70;;;8.90;;
43793;SDS011;29414;44.798;20.366;2022-11-12T23:45:39;11.67;;;9.43;;
43793;SDS011;29414;44.798;20.366;2022-11-12T23:49:40;11.90;;;9.37;;
43793;SDS011;29414;44.798;20.366;2022-11-12T23:53:41;14.40;;;8.77;;
43793;SDS011;29414;44.798;20.366;2022-11-12T23:57:41;13.97;;;9.10;;
